Terminal Aerodrome Forecast
Issued by NWS

Home | Current Version | Previous Version | Text Only | Print | Product List | Glossary On
Versions: 1 2 3 4 5 6 7 8 9 10 11 12 13 14 15
563
FTUS43 KIND 050520
TAFBMG
TAF
KBMG 050520Z 0506/0606 28007KT P6SM OVC015
     FM050800 29006KT P6SM OVC008
     FM051200 00000KT 4SM BR OVC008
     FM051400 VRB03KT P6SM BKN008
     FM051600 VRB03KT P6SM BKN015
     FM051800 13004KT P6SM SCT035
     FM052000 11005KT P6SM SCT250
      AMD LTD TO CLD VIS AND WIND TIL 051400=

USA.gov is the U.S. government's official web portal to all federal, state and local government web resources and services.